createdAt,value
2022-09-14T00:19:16.611Z,59
2022-09-14T00:49:14.968Z,60
2022-09-14T01:19:08.125Z,61
2022-09-14T01:49:11.975Z,70
2022-09-14T02:19:07.813Z,70
2022-09-14T02:49:07.174Z,62
2022-09-14T03:19:12.110Z,60
2022-09-14T03:49:14.297Z,60
2022-09-14T04:19:19.914Z,63
2022-09-14T04:49:22.419Z,63
2022-09-14T05:19:21.109Z,73
2022-09-14T05:49:19.211Z,63
2022-09-14T06:19:26.915Z,65
2022-09-14T06:49:32.166Z,64
2022-09-14T07:19:34.489Z,64
2022-09-14T07:49:39.687Z,63
2022-09-14T08:19:42.310Z,63
2022-09-14T08:49:47.434Z,63
2022-09-14T09:19:50.051Z,61
2022-09-14T09:49:57.624Z,100
2022-09-14T10:20:03.081Z,74
2022-09-14T10:50:04.306Z,95
2022-09-14T11:20:04.759Z,83
2022-09-14T11:50:01.078Z,83
2022-09-14T12:19:42.808Z,82
2022-09-14T12:49:44.521Z,76
2022-09-14T13:19:41.859Z,74
2022-09-14T13:49:39.389Z,87
2022-09-14T15:19:47.752Z,77
2022-09-14T15:49:54.470Z,76
2022-09-14T16:19:52.069Z,76
2022-09-14T16:49:53.670Z,80
2022-09-14T17:19:49.959Z,75
2022-09-14T17:49:49.914Z,160
2022-09-14T18:19:51.898Z,104
2022-09-14T18:49:55.353Z,103
2022-09-14T19:19:56.769Z,102
2022-09-14T19:50:59.736Z,149
2022-09-14T20:20:56.318Z,115
2022-09-14T20:50:53.040Z,115
2022-09-14T21:20:51.155Z,134
2022-09-14T21:50:51.658Z,224
2022-09-14T22:20:43.923Z,158
2022-09-14T22:50:42.326Z,152
2022-09-14T23:20:37.105Z,145
2022-09-14T23:50:41.184Z,144
